sensor_id;sensor_type;location;lat;lon;timestamp;P1;durP1;ratioP1;P2;durP2;ratioP2
59054;SDS011;44845;51.444;7.460;2023-09-19T00:01:54;6.90;;;1.85;;
59054;SDS011;44845;51.444;7.460;2023-09-19T00:04:21;6.07;;;1.63;;
59054;SDS011;44845;51.444;7.460;2023-09-19T00:06:53;11.32;;;1.38;;
59054;SDS011;44845;51.444;7.460;2023-09-19T00:09:19;8.75;;;1.88;;
59054;SDS011;44845;51.444;7.460;2023-09-19T00:11:44;7.97;;;1.75;;
59054;SDS011;44845;51.444;7.460;2023-09-19T00:14:12;4.65;;;1.52;;
59054;SDS011;44845;51.444;7.460;2023-09-19T00:16:39;6.82;;;2.00;;
59054;SDS011;44845;51.444;7.460;2023-09-19T00:19:06;7.90;;;1.65;;
59054;SDS011;44845;51.444;7.460;2023-09-19T00:21:34;10.02;;;1.63;;
59054;SDS011;44845;51.444;7.460;2023-09-19T00:24:00;5.90;;;1.50;;
59054;SDS011;44845;51.444;7.460;2023-09-19T00:26:26;3.13;;;1.35;;
59054;SDS011;44845;51.444;7.460;2023-09-19T00:28:55;6.82;;;1.67;;
59054;SDS011;44845;51.444;7.460;2023-09-19T00:31:22;5.88;;;1.67;;
59054;SDS011;44845;51.444;7.460;2023-09-19T00:33:50;7.60;;;2.33;;
59054;SDS011;44845;51.444;7.460;2023-09-19T00:36:16;4.55;;;1.42;;
59054;SDS011;44845;51.444;7.460;2023-09-19T00:38:43;10.48;;;2.00;;
59054;SDS011;44845;51.444;7.460;2023-09-19T00:41:10;4.22;;;1.42;;
59054;SDS011;44845;51.444;7.460;2023-09-19T00:43:37;9.25;;;1.70;;
59054;SDS011;44845;51.444;7.460;2023-09-19T00:46:03;7.15;;;1.30;;
59054;SDS011;44845;51.444;7.460;2023-09-19T00:48:31;8.48;;;2.05;;
59054;SDS011;44845;51.444;7.460;2023-09-19T00:50:57;15.38;;;1.77;;
59054;SDS011;44845;51.444;7.460;2023-09-19T00:53:27;6.35;;;1.42;;
59054;SDS011;44845;51.444;7.460;2023-09-19T00:55:52;10.60;;;1.50;;
59054;SDS011;44845;51.444;7.460;2023-09-19T00:58:18;7.95;;;1.50;;
59054;SDS011;44845;51.444;7.460;2023-09-19T01:00:43;11.95;;;1.98;;
59054;SDS011;44845;51.444;7.460;2023-09-19T01:03:10;11.57;;;1.77;;
59054;SDS011;44845;51.444;7.460;2023-09-19T01:05:36;5.35;;;1.50;;
59054;SDS011;44845;51.444;7.460;2023-09-19T01:08:01;3.60;;;1.40;;
59054;SDS011;44845;51.444;7.460;2023-09-19T01:10:26;10.18;;;1.67;;
59054;SDS011;44845;51.444;7.460;2023-09-19T01:15:54;7.82;;;1.55;;
59054;SDS011;44845;51.444;7.460;2023-09-19T01:18:35;8.52;;;1.60;;
59054;SDS011;44845;51.444;7.460;2023-09-19T01:29:48;8.70;;;1.80;;
59054;SDS011;44845;51.444;7.460;2023-09-19T01:32:17;10.77;;;1.77;;
59054;SDS011;44845;51.444;7.460;2023-09-19T01:34:50;8.68;;;1.40;;
59054;SDS011;44845;51.444;7.460;2023-09-19T01:37:19;6.50;;;1.83;;
59054;SDS011;44845;51.444;7.460;2023-09-19T01:39:50;9.77;;;1.90;;
59054;SDS011;44845;51.444;7.460;2023-09-19T01:47:51;8.25;;;1.50;;
59054;SDS011;44845;51.444;7.460;2023-09-19T01:50:31;8.73;;;1.55;;
59054;SDS011;44845;51.444;7.460;2023-09-19T01:55:52;8.45;;;1.42;;
59054;SDS011;44845;51.444;7.460;2023-09-19T01:58:27;10.55;;;1.80;;
59054;SDS011;44845;51.444;7.460;2023-09-19T02:01:00;7.43;;;1.67;;
59054;SDS011;44845;51.444;7.460;2023-09-19T02:03:26;7.53;;;1.65;;
59054;SDS011;44845;51.444;7.460;2023-09-19T02:05:53;7.07;;;1.40;;
59054;SDS011;44845;51.444;7.460;2023-09-19T02:08:20;7.35;;;1.50;;
59054;SDS011;44845;51.444;7.460;2023-09-19T02:10:47;8.80;;;1.73;;
59054;SDS011;44845;51.444;7.460;2023-09-19T02:13:17;7.60;;;1.67;;
59054;SDS011;44845;51.444;7.460;2023-09-19T02:15:44;4.93;;;1.50;;
59054;SDS011;44845;51.444;7.460;2023-09-19T02:18:09;7.70;;;1.60;;
59054;SDS011;44845;51.444;7.460;2023-09-19T02:20:36;6.93;;;1.58;;
59054;SDS011;44845;51.444;7.460;2023-09-19T02:23:02;13.52;;;1.88;;
59054;SDS011;44845;51.444;7.460;2023-09-19T02:25:28;4.68;;;1.20;;
59054;SDS011;44845;51.444;7.460;2023-09-19T02:27:53;11.93;;;1.60;;
59054;SDS011;44845;51.444;7.460;2023-09-19T02:30:19;10.85;;;1.80;;
59054;SDS011;44845;51.444;7.460;2023-09-19T02:32:48;7.93;;;1.65;;
59054;SDS011;44845;51.444;7.460;2023-09-19T02:35:14;11.57;;;2.00;;
59054;SDS011;44845;51.444;7.460;2023-09-19T02:37:40;9.40;;;1.80;;
59054;SDS011;44845;51.444;7.460;2023-09-19T02:40:05;7.82;;;1.70;;
59054;SDS011;44845;51.444;7.460;2023-09-19T02:42:43;7.82;;;1.63;;
59054;SDS011;44845;51.444;7.460;2023-09-19T02:45:13;9.48;;;1.92;;
59054;SDS011;44845;51.444;7.460;2023-09-19T02:47:42;5.13;;;1.48;;
59054;SDS011;44845;51.444;7.460;2023-09-19T02:50:08;9.18;;;1.67;;
59054;SDS011;44845;51.444;7.460;2023-09-19T02:52:36;10.43;;;1.73;;
59054;SDS011;44845;51.444;7.460;2023-09-19T02:55:01;6.13;;;1.42;;
59054;SDS011;44845;51.444;7.460;2023-09-19T02:57:27;10.07;;;1.65;;
59054;SDS011;44845;51.444;7.460;2023-09-19T02:59:53;9.55;;;1.85;;
59054;SDS011;44845;51.444;7.460;2023-09-19T03:02:18;11.38;;;2.22;;
59054;SDS011;44845;51.444;7.460;2023-09-19T03:04:44;7.18;;;1.88;;
59054;SDS011;44845;51.444;7.460;2023-09-19T03:07:10;10.85;;;1.75;;
59054;SDS011;44845;51.444;7.460;2023-09-19T03:09:36;7.43;;;1.60;;
59054;SDS011;44845;51.444;7.460;2023-09-19T03:12:02;10.90;;;1.50;;
59054;SDS011;44845;51.444;7.460;2023-09-19T03:14:29;8.73;;;1.80;;
59054;SDS011;44845;51.444;7.460;2023-09-19T03:17:00;6.80;;;1.20;;
59054;SDS011;44845;51.444;7.460;2023-09-19T03:19:26;11.82;;;1.80;;
59054;SDS011;44845;51.444;7.460;2023-09-19T03:21:51;11.57;;;1.70;;
59054;SDS011;44845;51.444;7.460;2023-09-19T03:24:18;6.68;;;1.50;;
59054;SDS011;44845;51.444;7.460;2023-09-19T03:26:44;6.30;;;1.48;;
59054;SDS011;44845;51.444;7.460;2023-09-19T03:29:10;8.20;;;2.17;;
59054;SDS011;44845;51.444;7.460;2023-09-19T03:31:35;11.30;;;1.80;;
59054;SDS011;44845;51.444;7.460;2023-09-19T03:34:04;6.70;;;2.25;;
59054;SDS011;44845;51.444;7.460;2023-09-19T03:36:29;12.60;;;1.80;;
59054;SDS011;44845;51.444;7.460;2023-09-19T03:38:55;7.05;;;1.65;;
59054;SDS011;44845;51.444;7.460;2023-09-19T03:41:20;13.35;;;1.92;;
59054;SDS011;44845;51.444;7.460;2023-09-19T03:43:46;9.57;;;1.70;;
59054;SDS011;44845;51.444;7.460;2023-09-19T03:46:11;9.60;;;1.50;;
59054;SDS011;44845;51.444;7.460;2023-09-19T03:48:39;5.82;;;1.40;;
59054;SDS011;44845;51.444;7.460;2023-09-19T03:51:05;8.60;;;1.48;;
59054;SDS011;44845;51.444;7.460;2023-09-19T03:53:30;12.60;;;1.70;;
59054;SDS011;44845;51.444;7.460;2023-09-19T03:55:56;7.03;;;1.70;;
59054;SDS011;44845;51.444;7.460;2023-09-19T03:58:22;11.82;;;2.13;;
59054;SDS011;44845;51.444;7.460;2023-09-19T04:00:47;11.38;;;2.05;;
59054;SDS011;44845;51.444;7.460;2023-09-19T04:03:14;8.10;;;1.52;;
59054;SDS011;44845;51.444;7.460;2023-09-19T04:05:44;13.05;;;1.83;;
59054;SDS011;44845;51.444;7.460;2023-09-19T04:08:11;10.93;;;1.65;;
59054;SDS011;44845;51.444;7.460;2023-09-19T04:10:37;10.88;;;1.92;;
59054;SDS011;44845;51.444;7.460;2023-09-19T04:13:02;11.07;;;1.73;;
59054;SDS011;44845;51.444;7.460;2023-09-19T04:15:28;7.53;;;1.33;;
59054;SDS011;44845;51.444;7.460;2023-09-19T04:17:54;9.00;;;1.73;;
59054;SDS011;44845;51.444;7.460;2023-09-19T04:20:19;9.85;;;1.52;;
59054;SDS011;44845;51.444;7.460;2023-09-19T04:22:47;9.60;;;1.63;;
59054;SDS011;44845;51.444;7.460;2023-09-19T04:25:12;7.03;;;1.52;;
59054;SDS011;44845;51.444;7.460;2023-09-19T04:27:38;9.25;;;1.58;;
59054;SDS011;44845;51.444;7.460;2023-09-19T04:30:04;7.35;;;1.75;;
59054;SDS011;44845;51.444;7.460;2023-09-19T04:32:35;8.45;;;2.30;;
59054;SDS011;44845;51.444;7.460;2023-09-19T04:35:01;8.02;;;1.95;;
59054;SDS011;44845;51.444;7.460;2023-09-19T04:37:30;7.85;;;1.48;;
59054;SDS011;44845;51.444;7.460;2023-09-19T04:39:56;8.77;;;1.73;;
59054;SDS011;44845;51.444;7.460;2023-09-19T04:42:21;10.27;;;1.67;;
59054;SDS011;44845;51.444;7.460;2023-09-19T04:44:49;12.07;;;1.92;;
59054;SDS011;44845;51.444;7.460;2023-09-19T04:47:14;14.80;;;1.70;;
59054;SDS011;44845;51.444;7.460;2023-09-19T04:49:41;10.98;;;2.08;;
59054;SDS011;44845;51.444;7.460;2023-09-19T04:52:06;7.55;;;1.52;;
59054;SDS011;44845;51.444;7.460;2023-09-19T04:54:32;8.52;;;1.60;;
59054;SDS011;44845;51.444;7.460;2023-09-19T04:56:58;9.95;;;1.60;;
59054;SDS011;44845;51.444;7.460;2023-09-19T04:59:24;8.43;;;1.55;;
59054;SDS011;44845;51.444;7.460;2023-09-19T05:01:49;8.65;;;1.90;;
59054;SDS011;44845;51.444;7.460;2023-09-19T05:04:15;12.73;;;1.67;;
59054;SDS011;44845;51.444;7.460;2023-09-19T05:06:40;8.70;;;1.48;;
59054;SDS011;44845;51.444;7.460;2023-09-19T05:09:05;12.38;;;2.03;;
59054;SDS011;44845;51.444;7.460;2023-09-19T05:11:31;8.18;;;1.90;;
59054;SDS011;44845;51.444;7.460;2023-09-19T05:13:56;9.15;;;1.67;;
59054;SDS011;44845;51.444;7.460;2023-09-19T05:16:22;11.98;;;1.75;;
59054;SDS011;44845;51.444;7.460;2023-09-19T05:18:47;10.18;;;1.85;;
59054;SDS011;44845;51.444;7.460;2023-09-19T05:21:12;9.18;;;1.40;;
59054;SDS011;44845;51.444;7.460;2023-09-19T05:23:38;7.07;;;1.70;;
59054;SDS011;44845;51.444;7.460;2023-09-19T05:26:03;5.78;;;1.90;;
59054;SDS011;44845;51.444;7.460;2023-09-19T05:28:30;9.35;;;1.88;;
59054;SDS011;44845;51.444;7.460;2023-09-19T05:30:57;8.50;;;1.80;;
59054;SDS011;44845;51.444;7.460;2023-09-19T05:33:26;6.75;;;1.42;;
59054;SDS011;44845;51.444;7.460;2023-09-19T05:35:52;6.70;;;1.80;;
59054;SDS011;44845;51.444;7.460;2023-09-19T05:38:18;9.95;;;2.20;;
59054;SDS011;44845;51.444;7.460;2023-09-19T05:40:45;10.05;;;1.90;;
59054;SDS011;44845;51.444;7.460;2023-09-19T05:43:11;6.38;;;1.80;;
59054;SDS011;44845;51.444;7.460;2023-09-19T05:45:36;7.65;;;2.03;;
59054;SDS011;44845;51.444;7.460;2023-09-19T05:48:10;15.30;;;2.17;;
59054;SDS011;44845;51.444;7.460;2023-09-19T05:50:38;10.25;;;1.92;;
59054;SDS011;44845;51.444;7.460;2023-09-19T05:53:03;10.65;;;2.10;;
59054;SDS011;44845;51.444;7.460;2023-09-19T05:55:29;7.13;;;1.92;;
59054;SDS011;44845;51.444;7.460;2023-09-19T05:57:55;9.10;;;1.90;;
59054;SDS011;44845;51.444;7.460;2023-09-19T06:00:21;6.45;;;1.50;;
59054;SDS011;44845;51.444;7.460;2023-09-19T06:02:54;8.82;;;1.95;;
59054;SDS011;44845;51.444;7.460;2023-09-19T06:05:20;6.15;;;1.50;;
59054;SDS011;44845;51.444;7.460;2023-09-19T06:07:46;5.93;;;1.50;;
59054;SDS011;44845;51.444;7.460;2023-09-19T06:10:12;15.32;;;2.97;;
59054;SDS011;44845;51.444;7.460;2023-09-19T06:12:41;6.57;;;1.63;;
59054;SDS011;44845;51.444;7.460;2023-09-19T06:15:09;9.98;;;1.73;;
59054;SDS011;44845;51.444;7.460;2023-09-19T06:17:40;8.82;;;1.70;;
59054;SDS011;44845;51.444;7.460;2023-09-19T06:20:06;7.38;;;1.52;;
59054;SDS011;44845;51.444;7.460;2023-09-19T06:22:37;8.90;;;2.33;;
59054;SDS011;44845;51.444;7.460;2023-09-19T06:25:03;9.10;;;2.25;;
59054;SDS011;44845;51.444;7.460;2023-09-19T06:27:29;10.25;;;1.77;;
59054;SDS011;44845;51.444;7.460;2023-09-19T06:29:54;6.78;;;1.80;;
59054;SDS011;44845;51.444;7.460;2023-09-19T06:32:26;9.80;;;1.92;;
59054;SDS011;44845;51.444;7.460;2023-09-19T06:34:52;8.32;;;1.90;;
59054;SDS011;44845;51.444;7.460;2023-09-19T06:37:19;8.75;;;1.63;;
59054;SDS011;44845;51.444;7.460;2023-09-19T06:39:46;5.85;;;1.83;;
59054;SDS011;44845;51.444;7.460;2023-09-19T06:42:12;12.88;;;2.22;;
59054;SDS011;44845;51.444;7.460;2023-09-19T06:44:38;9.48;;;1.80;;
59054;SDS011;44845;51.444;7.460;2023-09-19T06:47:03;9.85;;;1.63;;
59054;SDS011;44845;51.444;7.460;2023-09-19T06:49:29;8.23;;;1.60;;
59054;SDS011;44845;51.444;7.460;2023-09-19T06:51:55;13.52;;;1.88;;
59054;SDS011;44845;51.444;7.460;2023-09-19T06:54:22;10.73;;;1.80;;
59054;SDS011;44845;51.444;7.460;2023-09-19T06:56:47;11.52;;;1.92;;
59054;SDS011;44845;51.444;7.460;2023-09-19T06:59:13;11.15;;;1.85;;
59054;SDS011;44845;51.444;7.460;2023-09-19T07:01:39;10.75;;;2.58;;
59054;SDS011;44845;51.444;7.460;2023-09-19T07:04:06;13.50;;;2.25;;
59054;SDS011;44845;51.444;7.460;2023-09-19T07:06:31;10.18;;;1.85;;
59054;SDS011;44845;51.444;7.460;2023-09-19T07:08:57;9.50;;;2.13;;
59054;SDS011;44845;51.444;7.460;2023-09-19T07:11:22;8.90;;;2.22;;
59054;SDS011;44845;51.444;7.460;2023-09-19T07:13:49;10.65;;;1.75;;
59054;SDS011;44845;51.444;7.460;2023-09-19T07:16:15;15.50;;;2.10;;
59054;SDS011;44845;51.444;7.460;2023-09-19T07:18:52;9.60;;;2.00;;
59054;SDS011;44845;51.444;7.460;2023-09-19T07:21:18;11.07;;;2.17;;
59054;SDS011;44845;51.444;7.460;2023-09-19T07:23:43;15.10;;;1.95;;
59054;SDS011;44845;51.444;7.460;2023-09-19T07:26:08;13.45;;;2.40;;
59054;SDS011;44845;51.444;7.460;2023-09-19T07:28:34;7.90;;;1.80;;
59054;SDS011;44845;51.444;7.460;2023-09-19T07:31:01;10.05;;;1.80;;
59054;SDS011;44845;51.444;7.460;2023-09-19T07:33:28;11.10;;;2.50;;
59054;SDS011;44845;51.444;7.460;2023-09-19T07:35:53;13.27;;;2.33;;
59054;SDS011;44845;51.444;7.460;2023-09-19T07:38:19;9.02;;;2.42;;
59054;SDS011;44845;51.444;7.460;2023-09-19T07:40:45;11.02;;;3.15;;
59054;SDS011;44845;51.444;7.460;2023-09-19T07:43:11;10.68;;;2.20;;
59054;SDS011;44845;51.444;7.460;2023-09-19T07:45:36;11.80;;;2.75;;
59054;SDS011;44845;51.444;7.460;2023-09-19T07:48:01;7.65;;;1.90;;
59054;SDS011;44845;51.444;7.460;2023-09-19T07:50:29;12.50;;;2.10;;
59054;SDS011;44845;51.444;7.460;2023-09-19T07:52:54;8.73;;;2.10;;
59054;SDS011;44845;51.444;7.460;2023-09-19T07:55:21;8.48;;;2.42;;
59054;SDS011;44845;51.444;7.460;2023-09-19T07:57:51;9.65;;;1.92;;
59054;SDS011;44845;51.444;7.460;2023-09-19T08:00:17;7.80;;;1.83;;
59054;SDS011;44845;51.444;7.460;2023-09-19T08:02:43;9.80;;;2.00;;
59054;SDS011;44845;51.444;7.460;2023-09-19T08:05:09;8.50;;;2.00;;
59054;SDS011;44845;51.444;7.460;2023-09-19T08:07:37;11.23;;;1.95;;
59054;SDS011;44845;51.444;7.460;2023-09-19T08:10:03;11.93;;;2.05;;
59054;SDS011;44845;51.444;7.460;2023-09-19T08:12:33;10.02;;;2.40;;
59054;SDS011;44845;51.444;7.460;2023-09-19T08:15:04;10.40;;;1.83;;
59054;SDS011;44845;51.444;7.460;2023-09-19T08:17:34;8.88;;;2.33;;
59054;SDS011;44845;51.444;7.460;2023-09-19T08:19:59;12.35;;;2.30;;
59054;SDS011;44845;51.444;7.460;2023-09-19T08:22:25;6.70;;;2.00;;
59054;SDS011;44845;51.444;7.460;2023-09-19T08:24:52;13.27;;;2.00;;
59054;SDS011;44845;51.444;7.460;2023-09-19T08:27:17;9.18;;;1.85;;
59054;SDS011;44845;51.444;7.460;2023-09-19T08:29:44;9.32;;;1.95;;
59054;SDS011;44845;51.444;7.460;2023-09-19T08:32:10;13.63;;;2.03;;
59054;SDS011;44845;51.444;7.460;2023-09-19T08:34:35;9.20;;;1.92;;
59054;SDS011;44845;51.444;7.460;2023-09-19T08:37:03;11.65;;;1.98;;
59054;SDS011;44845;51.444;7.460;2023-09-19T08:39:29;10.27;;;2.08;;
59054;SDS011;44845;51.444;7.460;2023-09-19T08:41:59;15.07;;;2.00;;
59054;SDS011;44845;51.444;7.460;2023-09-19T08:44:26;14.07;;;2.05;;
59054;SDS011;44845;51.444;7.460;2023-09-19T08:46:55;9.68;;;2.30;;
59054;SDS011;44845;51.444;7.460;2023-09-19T08:52:19;11.52;;;2.20;;
59054;SDS011;44845;51.444;7.460;2023-09-19T08:54:47;14.07;;;2.30;;
59054;SDS011;44845;51.444;7.460;2023-09-19T08:57:16;15.85;;;2.40;;
59054;SDS011;44845;51.444;7.460;2023-09-19T08:59:46;13.05;;;2.00;;
59054;SDS011;44845;51.444;7.460;2023-09-19T09:02:13;11.43;;;1.90;;
59054;SDS011;44845;51.444;7.460;2023-09-19T09:04:40;15.77;;;2.13;;
59054;SDS011;44845;51.444;7.460;2023-09-19T09:07:09;12.63;;;2.15;;
59054;SDS011;44845;51.444;7.460;2023-09-19T09:09:36;8.32;;;2.42;;
59054;SDS011;44845;51.444;7.460;2023-09-19T09:12:02;11.15;;;2.05;;
59054;SDS011;44845;51.444;7.460;2023-09-19T09:14:28;15.18;;;2.78;;
59054;SDS011;44845;51.444;7.460;2023-09-19T09:16:55;12.23;;;1.92;;
59054;SDS011;44845;51.444;7.460;2023-09-19T09:19:23;11.55;;;2.08;;
59054;SDS011;44845;51.444;7.460;2023-09-19T09:21:50;10.80;;;2.53;;
59054;SDS011;44845;51.444;7.460;2023-09-19T09:24:29;13.20;;;2.17;;
59054;SDS011;44845;51.444;7.460;2023-09-19T09:26:56;9.40;;;2.08;;
59054;SDS011;44845;51.444;7.460;2023-09-19T09:30:07;11.02;;;1.70;;
59054;SDS011;44845;51.444;7.460;2023-09-19T09:34:43;12.45;;;2.20;;
59054;SDS011;44845;51.444;7.460;2023-09-19T09:37:12;10.25;;;2.00;;
59054;SDS011;44845;51.444;7.460;2023-09-19T09:39:40;8.20;;;1.75;;
59054;SDS011;44845;51.444;7.460;2023-09-19T09:42:05;7.95;;;1.65;;
59054;SDS011;44845;51.444;7.460;2023-09-19T09:44:31;11.18;;;1.67;;
59054;SDS011;44845;51.444;7.460;2023-09-19T09:46:57;8.57;;;1.88;;
59054;SDS011;44845;51.444;7.460;2023-09-19T09:49:49;9.63;;;1.90;;
59054;SDS011;44845;51.444;7.460;2023-09-19T09:52:32;7.07;;;1.80;;
59054;SDS011;44845;51.444;7.460;2023-09-19T09:55:09;11.77;;;2.15;;
59054;SDS011;44845;51.444;7.460;2023-09-19T09:57:35;9.13;;;1.85;;
59054;SDS011;44845;51.444;7.460;2023-09-19T10:00:00;13.57;;;1.75;;
59054;SDS011;44845;51.444;7.460;2023-09-19T10:02:36;9.40;;;1.77;;
59054;SDS011;44845;51.444;7.460;2023-09-19T10:05:11;7.68;;;1.77;;
59054;SDS011;44845;51.444;7.460;2023-09-19T10:07:38;7.90;;;2.05;;
59054;SDS011;44845;51.444;7.460;2023-09-19T10:10:07;14.52;;;2.17;;
59054;SDS011;44845;51.444;7.460;2023-09-19T10:12:45;10.48;;;2.17;;
59054;SDS011;44845;51.444;7.460;2023-09-19T10:15:13;9.63;;;2.10;;
59054;SDS011;44845;51.444;7.460;2023-09-19T10:17:44;9.25;;;2.03;;
59054;SDS011;44845;51.444;7.460;2023-09-19T10:20:12;12.07;;;1.83;;
59054;SDS011;44845;51.444;7.460;2023-09-19T10:22:47;6.93;;;1.42;;
59054;SDS011;44845;51.444;7.460;2023-09-19T10:25:22;7.70;;;1.88;;
59054;SDS011;44845;51.444;7.460;2023-09-19T10:27:57;7.43;;;1.95;;
59054;SDS011;44845;51.444;7.460;2023-09-19T10:30:28;9.88;;;1.90;;
59054;SDS011;44845;51.444;7.460;2023-09-19T10:33:02;7.47;;;1.55;;
59054;SDS011;44845;51.444;7.460;2023-09-19T10:35:29;8.65;;;2.05;;
59054;SDS011;44845;51.444;7.460;2023-09-19T10:37:57;9.02;;;1.80;;
59054;SDS011;44845;51.444;7.460;2023-09-19T10:40:24;9.52;;;1.63;;
59054;SDS011;44845;51.444;7.460;2023-09-19T10:42:55;6.75;;;1.55;;
59054;SDS011;44845;51.444;7.460;2023-09-19T10:45:28;12.18;;;1.85;;
59054;SDS011;44845;51.444;7.460;2023-09-19T10:47:56;11.10;;;2.30;;
59054;SDS011;44845;51.444;7.460;2023-09-19T10:50:22;9.88;;;1.98;;
59054;SDS011;44845;51.444;7.460;2023-09-19T10:52:48;10.13;;;1.85;;
59054;SDS011;44845;51.444;7.460;2023-09-19T10:55:23;8.45;;;1.85;;
59054;SDS011;44845;51.444;7.460;2023-09-19T10:57:53;6.35;;;1.60;;
59054;SDS011;44845;51.444;7.460;2023-09-19T11:00:19;6.90;;;2.00;;
59054;SDS011;44845;51.444;7.460;2023-09-19T11:03:23;8.32;;;1.67;;
59054;SDS011;44845;51.444;7.460;2023-09-19T11:06:03;7.63;;;2.38;;
59054;SDS011;44845;51.444;7.460;2023-09-19T11:14:14;6.80;;;1.70;;
59054;SDS011;44845;51.444;7.460;2023-09-19T11:33:17;7.40;;;1.88;;
59054;SDS011;44845;51.444;7.460;2023-09-19T11:36:05;10.27;;;2.20;;
59054;SDS011;44845;51.444;7.460;2023-09-19T11:46:26;6.80;;;1.70;;
59054;SDS011;44845;51.444;7.460;2023-09-19T11:48:53;5.95;;;1.63;;
59054;SDS011;44845;51.444;7.460;2023-09-19T11:51:19;6.10;;;1.30;;
59054;SDS011;44845;51.444;7.460;2023-09-19T11:53:52;7.78;;;1.95;;
59054;SDS011;44845;51.444;7.460;2023-09-19T11:56:19;9.05;;;1.90;;
59054;SDS011;44845;51.444;7.460;2023-09-19T11:58:48;10.93;;;1.70;;
59054;SDS011;44845;51.444;7.460;2023-09-19T12:01:31;7.85;;;1.33;;
59054;SDS011;44845;51.444;7.460;2023-09-19T12:03:58;4.63;;;1.42;;
59054;SDS011;44845;51.444;7.460;2023-09-19T12:06:25;6.35;;;1.38;;
59054;SDS011;44845;51.444;7.460;2023-09-19T12:08:52;5.75;;;1.63;;
59054;SDS011;44845;51.444;7.460;2023-09-19T12:11:19;7.85;;;1.60;;
59054;SDS011;44845;51.444;7.460;2023-09-19T12:13:46;6.78;;;1.65;;
59054;SDS011;44845;51.444;7.460;2023-09-19T12:16:17;6.70;;;1.33;;
59054;SDS011;44845;51.444;7.460;2023-09-19T12:18:46;7.40;;;1.65;;
59054;SDS011;44845;51.444;7.460;2023-09-19T12:21:29;5.32;;;1.45;;
59054;SDS011;44845;51.444;7.460;2023-09-19T12:24:00;9.23;;;2.40;;
59054;SDS011;44845;51.444;7.460;2023-09-19T12:26:30;8.25;;;1.60;;
59054;SDS011;44845;51.444;7.460;2023-09-19T12:29:02;6.07;;;1.35;;
59054;SDS011;44845;51.444;7.460;2023-09-19T12:31:30;4.28;;;1.40;;
59054;SDS011;44845;51.444;7.460;2023-09-19T12:34:01;5.70;;;1.60;;
59054;SDS011;44845;51.444;7.460;2023-09-19T12:36:27;6.43;;;1.55;;
59054;SDS011;44845;51.444;7.460;2023-09-19T12:38:55;8.50;;;1.50;;
59054;SDS011;44845;51.444;7.460;2023-09-19T12:41:24;5.88;;;1.50;;
59054;SDS011;44845;51.444;7.460;2023-09-19T12:43:51;5.18;;;1.50;;
59054;SDS011;44845;51.444;7.460;2023-09-19T12:46:22;11.13;;;1.92;;
59054;SDS011;44845;51.444;7.460;2023-09-19T12:51:47;7.55;;;1.65;;
59054;SDS011;44845;51.444;7.460;2023-09-19T12:54:13;3.55;;;1.13;;
59054;SDS011;44845;51.444;7.460;2023-09-19T12:56:45;3.50;;;1.30;;
59054;SDS011;44845;51.444;7.460;2023-09-19T12:59:14;6.60;;;1.55;;
59054;SDS011;44845;51.444;7.460;2023-09-19T13:01:40;5.57;;;1.60;;
59054;SDS011;44845;51.444;7.460;2023-09-19T13:06:45;8.25;;;1.73;;
59054;SDS011;44845;51.444;7.460;2023-09-19T13:09:13;4.35;;;1.30;;
59054;SDS011;44845;51.444;7.460;2023-09-19T13:11:40;4.55;;;1.20;;
59054;SDS011;44845;51.444;7.460;2023-09-19T13:14:14;9.23;;;1.40;;
59054;SDS011;44845;51.444;7.460;2023-09-19T13:19:34;6.22;;;1.45;;
59054;SDS011;44845;51.444;7.460;2023-09-19T13:22:00;5.40;;;1.30;;
59054;SDS011;44845;51.444;7.460;2023-09-19T13:24:26;3.70;;;1.35;;
59054;SDS011;44845;51.444;7.460;2023-09-19T13:26:52;6.15;;;1.23;;
59054;SDS011;44845;51.444;7.460;2023-09-19T13:29:18;3.35;;;1.23;;
59054;SDS011;44845;51.444;7.460;2023-09-19T13:31:47;4.05;;;1.20;;
59054;SDS011;44845;51.444;7.460;2023-09-19T13:34:12;5.47;;;1.60;;
59054;SDS011;44845;51.444;7.460;2023-09-19T13:36:40;5.00;;;1.40;;
59054;SDS011;44845;51.444;7.460;2023-09-19T13:39:07;7.13;;;1.50;;
59054;SDS011;44845;51.444;7.460;2023-09-19T13:41:34;6.47;;;1.27;;
59054;SDS011;44845;51.444;7.460;2023-09-19T13:44:01;7.72;;;1.40;;
59054;SDS011;44845;51.444;7.460;2023-09-19T13:46:27;2.65;;;1.13;;
59054;SDS011;44845;51.444;7.460;2023-09-19T13:48:52;4.65;;;1.20;;
59054;SDS011;44845;51.444;7.460;2023-09-19T13:51:21;8.18;;;1.20;;
59054;SDS011;44845;51.444;7.460;2023-09-19T13:53:50;7.35;;;1.20;;
59054;SDS011;44845;51.444;7.460;2023-09-19T13:56:15;6.00;;;1.17;;
59054;SDS011;44845;51.444;7.460;2023-09-19T13:58:41;3.50;;;1.10;;
59054;SDS011;44845;51.444;7.460;2023-09-19T14:01:08;8.85;;;1.35;;
59054;SDS011;44845;51.444;7.460;2023-09-19T14:03:41;3.33;;;0.80;;
59054;SDS011;44845;51.444;7.460;2023-09-19T14:08:40;3.45;;;1.00;;
59054;SDS011;44845;51.444;7.460;2023-09-19T14:11:06;6.60;;;1.10;;
59054;SDS011;44845;51.444;7.460;2023-09-19T14:13:32;4.07;;;1.08;;
59054;SDS011;44845;51.444;7.460;2023-09-19T14:15:57;3.38;;;0.80;;
59054;SDS011;44845;51.444;7.460;2023-09-19T14:18:22;3.22;;;0.93;;
59054;SDS011;44845;51.444;7.460;2023-09-19T14:20:48;6.32;;;1.00;;
59054;SDS011;44845;51.444;7.460;2023-09-19T14:23:13;3.85;;;1.08;;
59054;SDS011;44845;51.444;7.460;2023-09-19T14:25:38;4.50;;;0.80;;
59054;SDS011;44845;51.444;7.460;2023-09-19T14:28:04;4.32;;;0.90;;
59054;SDS011;44845;51.444;7.460;2023-09-19T14:30:32;3.65;;;0.90;;
59054;SDS011;44845;51.444;7.460;2023-09-19T14:32:58;2.22;;;0.82;;
59054;SDS011;44845;51.444;7.460;2023-09-19T14:35:23;1.95;;;0.50;;
59054;SDS011;44845;51.444;7.460;2023-09-19T14:37:49;3.55;;;0.90;;
59054;SDS011;44845;51.444;7.460;2023-09-19T14:40:14;3.50;;;1.20;;
59054;SDS011;44845;51.444;7.460;2023-09-19T14:42:42;3.35;;;0.77;;
59054;SDS011;44845;51.444;7.460;2023-09-19T14:45:09;3.60;;;0.70;;
59054;SDS011;44845;51.444;7.460;2023-09-19T14:47:34;4.55;;;0.80;;
59054;SDS011;44845;51.444;7.460;2023-09-19T14:50:01;3.60;;;0.70;;
59054;SDS011;44845;51.444;7.460;2023-09-19T14:52:31;9.02;;;1.48;;
59054;SDS011;44845;51.444;7.460;2023-09-19T14:54:57;2.10;;;0.80;;
59054;SDS011;44845;51.444;7.460;2023-09-19T14:57:22;1.35;;;0.60;;
59054;SDS011;44845;51.444;7.460;2023-09-19T14:59:49;3.83;;;0.88;;
59054;SDS011;44845;51.444;7.460;2023-09-19T15:02:15;3.70;;;0.90;;
59054;SDS011;44845;51.444;7.460;2023-09-19T15:04:41;2.95;;;0.70;;
59054;SDS011;44845;51.444;7.460;2023-09-19T15:07:09;4.72;;;0.70;;
59054;SDS011;44845;51.444;7.460;2023-09-19T15:09:35;5.00;;;0.57;;
59054;SDS011;44845;51.444;7.460;2023-09-19T15:12:00;3.40;;;0.60;;
59054;SDS011;44845;51.444;7.460;2023-09-19T15:14:26;4.32;;;0.68;;
59054;SDS011;44845;51.444;7.460;2023-09-19T15:16:51;3.30;;;0.70;;
59054;SDS011;44845;51.444;7.460;2023-09-19T15:19:17;3.75;;;0.60;;
59054;SDS011;44845;51.444;7.460;2023-09-19T15:21:42;1.83;;;0.70;;
59054;SDS011;44845;51.444;7.460;2023-09-19T15:24:08;4.97;;;0.80;;
59054;SDS011;44845;51.444;7.460;2023-09-19T15:26:34;1.88;;;0.57;;
59054;SDS011;44845;51.444;7.460;2023-09-19T15:29:04;4.00;;;0.77;;
59054;SDS011;44845;51.444;7.460;2023-09-19T15:31:30;1.20;;;0.50;;
59054;SDS011;44845;51.444;7.460;2023-09-19T15:33:55;4.03;;;0.63;;
59054;SDS011;44845;51.444;7.460;2023-09-19T15:36:20;2.53;;;0.68;;
59054;SDS011;44845;51.444;7.460;2023-09-19T15:41:31;2.83;;;0.80;;
59054;SDS011;44845;51.444;7.460;2023-09-19T15:43:57;2.17;;;0.50;;
59054;SDS011;44845;51.444;7.460;2023-09-19T15:46:24;2.03;;;0.57;;
59054;SDS011;44845;51.444;7.460;2023-09-19T15:48:52;6.05;;;0.80;;
59054;SDS011;44845;51.444;7.460;2023-09-19T15:51:18;2.38;;;0.68;;
59054;SDS011;44845;51.444;7.460;2023-09-19T15:53:44;3.05;;;0.70;;
59054;SDS011;44845;51.444;7.460;2023-09-19T15:56:12;3.85;;;0.63;;